sensor_id;sensor_type;location;lat;lon;timestamp;pressure;altitude;pressure_sealevel;temperature;humidity
74474;BME280;62922;-6.168;106.796;2022-11-15T00:00:43;100918.75;;;30.57;63.44
74474;BME280;62922;-6.168;106.796;2022-11-15T00:03:08;100923.25;;;30.58;63.49
74474;BME280;62922;-6.168;106.796;2022-11-15T00:05:35;100921.22;;;30.58;63.70
74474;BME280;62922;-6.168;106.796;2022-11-15T00:08:01;100930.50;;;30.59;63.55
74474;BME280;62922;-6.168;106.796;2022-11-15T00:10:27;100937.31;;;30.58;63.78
74474;BME280;62922;-6.168;106.796;2022-11-15T00:12:53;100933.84;;;30.61;63.48
74474;BME280;62922;-6.168;106.796;2022-11-15T00:15:19;100935.00;;;30.60;63.56
74474;BME280;62922;-6.168;106.796;2022-11-15T00:17:48;100929.22;;;30.65;63.42
74474;BME280;62922;-6.168;106.796;2022-11-15T00:20:16;100940.31;;;30.61;63.45
74474;BME280;62922;-6.168;106.796;2022-11-15T00:22:42;100942.28;;;30.61;63.32
74474;BME280;62922;-6.168;106.796;2022-11-15T00:25:08;100947.25;;;30.64;63.42
74474;BME280;62922;-6.168;106.796;2022-11-15T00:27:34;100945.94;;;30.61;63.49
74474;BME280;62922;-6.168;106.796;2022-11-15T00:30:00;100953.56;;;30.61;63.61
74474;BME280;62922;-6.168;106.796;2022-11-15T00:32:26;100948.75;;;30.61;63.35
74474;BME280;62922;-6.168;106.796;2022-11-15T00:34:52;100955.69;;;30.64;63.52
74474;BME280;62922;-6.168;106.796;2022-11-15T00:37:18;100961.34;;;30.64;63.18
74474;BME280;62922;-6.168;106.796;2022-11-15T00:39:43;100961.03;;;30.65;63.17
74474;BME280;62922;-6.168;106.796;2022-11-15T00:42:09;100955.41;;;30.65;63.42
74474;BME280;62922;-6.168;106.796;2022-11-15T00:44:37;100952.59;;;30.65;63.24
74474;BME280;62922;-6.168;106.796;2022-11-15T00:47:03;100957.88;;;30.67;63.12
74474;BME280;62922;-6.168;106.796;2022-11-15T00:49:29;100955.41;;;30.65;63.20
74474;BME280;62922;-6.168;106.796;2022-11-15T00:51:55;100954.22;;;30.66;63.30
74474;BME280;62922;-6.168;106.796;2022-11-15T00:54:21;100956.22;;;30.66;63.46
74474;BME280;62922;-6.168;106.796;2022-11-15T00:56:47;100955.06;;;30.67;63.26
74474;BME280;62922;-6.168;106.796;2022-11-15T00:59:12;100954.22;;;30.66;63.15
74474;BME280;62922;-6.168;106.796;2022-11-15T01:01:41;100951.91;;;30.68;62.98
74474;BME280;62922;-6.168;106.796;2022-11-15T01:04:07;100952.25;;;30.67;63.04
74474;BME280;62922;-6.168;106.796;2022-11-15T01:06:32;100951.91;;;30.68;62.91
74474;BME280;62922;-6.168;106.796;2022-11-15T01:08:58;100958.06;;;30.71;62.86
74474;BME280;62922;-6.168;106.796;2022-11-15T01:11:24;100952.41;;;30.71;62.63
74474;BME280;62922;-6.168;106.796;2022-11-15T01:13:50;100943.63;;;30.72;62.69
74474;BME280;62922;-6.168;106.796;2022-11-15T01:16:17;100946.47;;;30.72;62.86
74474;BME280;62922;-6.168;106.796;2022-11-15T01:18:44;100954.91;;;30.72;62.75
74474;BME280;62922;-6.168;106.796;2022-11-15T01:21:11;100961.72;;;30.71;62.61
74474;BME280;62922;-6.168;106.796;2022-11-15T01:23:37;100956.25;;;30.75;62.63
74474;BME280;62922;-6.168;106.796;2022-11-15T01:26:04;100963.53;;;30.76;62.33
74474;BME280;62922;-6.168;106.796;2022-11-15T01:28:33;100962.69;;;30.75;62.44
74474;BME280;62922;-6.168;106.796;2022-11-15T01:31:00;100949.94;;;30.78;62.43
74474;BME280;62922;-6.168;106.796;2022-11-15T01:33:27;100947.63;;;30.80;62.31
74474;BME280;62922;-6.168;106.796;2022-11-15T01:35:53;100953.81;;;30.82;62.17
74474;BME280;62922;-6.168;106.796;2022-11-15T01:38:19;100953.47;;;30.83;62.31
74474;BME280;62922;-6.168;106.796;2022-11-15T01:40:45;100940.72;;;30.86;62.07
74474;BME280;62922;-6.168;106.796;2022-11-15T01:43:32;100932.28;;;30.86;61.82
74474;BME280;62922;-6.168;106.796;2022-11-15T01:46:00;100930.41;;;30.90;62.09
74474;BME280;62922;-6.168;106.796;2022-11-15T01:48:32;100930.13;;;30.91;61.84
74474;BME280;62922;-6.168;106.796;2022-11-15T01:50:59;100932.75;;;30.96;61.59
74474;BME280;62922;-6.168;106.796;2022-11-15T01:53:26;100931.59;;;30.97;61.66
74474;BME280;62922;-6.168;106.796;2022-11-15T01:55:52;100937.09;;;31.02;61.93
74474;BME280;62922;-6.168;106.796;2022-11-15T01:58:19;100930.44;;;31.07;61.50
74474;BME280;62922;-6.168;106.796;2022-11-15T02:00:45;100931.28;;;31.07;61.41
74474;BME280;62922;-6.168;106.796;2022-11-15T02:03:13;100928.13;;;31.09;61.29
74474;BME280;62922;-6.168;106.796;2022-11-15T02:05:39;100937.09;;;31.11;61.02
74474;BME280;62922;-6.168;106.796;2022-11-15T02:08:08;100929.13;;;31.13;61.06
74474;BME280;62922;-6.168;106.796;2022-11-15T02:10:47;100921.16;;;31.15;61.20
74474;BME280;62922;-6.168;106.796;2022-11-15T02:13:14;100924.00;;;31.15;61.58
74474;BME280;62922;-6.168;106.796;2022-11-15T02:15:45;100920.16;;;31.19;61.10
74474;BME280;62922;-6.168;106.796;2022-11-15T02:31:03;100922.16;;;31.36;60.74
74474;BME280;62922;-6.168;106.796;2022-11-15T02:33:42;100915.38;;;31.37;60.95
74474;BME280;62922;-6.168;106.796;2022-11-15T02:36:15;100918.84;;;31.42;60.92
74474;BME280;62922;-6.168;106.796;2022-11-15T02:38:54;100931.09;;;31.46;60.62
74474;BME280;62922;-6.168;106.796;2022-11-15T02:43:50;100927.28;;;31.51;60.31
74474;BME280;62922;-6.168;106.796;2022-11-15T02:46:49;100931.09;;;31.55;59.93
74474;BME280;62922;-6.168;106.796;2022-11-15T02:49:25;100932.09;;;31.59;59.94
74474;BME280;62922;-6.168;106.796;2022-11-15T02:51:53;100922.63;;;31.63;59.42
74474;BME280;62922;-6.168;106.796;2022-11-15T02:54:21;100916.44;;;31.70;58.92
74474;BME280;62922;-6.168;106.796;2022-11-15T02:56:50;100904.50;;;31.73;58.56
74474;BME280;62922;-6.168;106.796;2022-11-15T03:04:37;100908.63;;;31.84;58.74
74474;BME280;62922;-6.168;106.796;2022-11-15T03:07:07;100903.97;;;31.88;58.52
74474;BME280;62922;-6.168;106.796;2022-11-15T03:12:18;100893.34;;;31.94;58.28
74474;BME280;62922;-6.168;106.796;2022-11-15T03:14:56;100900.97;;;31.93;58.23
74474;BME280;62922;-6.168;106.796;2022-11-15T03:19:53;100899.50;;;31.96;58.21
74474;BME280;62922;-6.168;106.796;2022-11-15T03:22:20;100897.81;;;31.95;58.82
74474;BME280;62922;-6.168;106.796;2022-11-15T03:24:47;100899.50;;;31.96;58.72
74474;BME280;62922;-6.168;106.796;2022-11-15T03:27:17;100896.97;;;31.94;58.46
74474;BME280;62922;-6.168;106.796;2022-11-15T03:29:47;100889.53;;;31.90;58.70
74474;BME280;62922;-6.168;106.796;2022-11-15T03:32:17;100893.81;;;31.87;58.79
74474;BME280;62922;-6.168;106.796;2022-11-15T03:34:53;100894.16;;;31.86;58.70
74474;BME280;62922;-6.168;106.796;2022-11-15T03:37:24;100885.00;;;31.89;58.50
74474;BME280;62922;-6.168;106.796;2022-11-15T03:39:53;100880.72;;;31.91;58.45
74474;BME280;62922;-6.168;106.796;2022-11-15T03:42:23;100878.75;;;31.92;58.18
74474;BME280;62922;-6.168;106.796;2022-11-15T03:47:24;100870.56;;;31.99;58.49
74474;BME280;62922;-6.168;106.796;2022-11-15T03:49:53;100868.09;;;31.97;58.05
74474;BME280;62922;-6.168;106.796;2022-11-15T03:52:22;100865.63;;;31.96;58.28
74474;BME280;62922;-6.168;106.796;2022-11-15T03:54:49;100857.16;;;31.96;58.22
74474;BME280;62922;-6.168;106.796;2022-11-15T03:57:16;100864.09;;;31.98;58.33
74474;BME280;62922;-6.168;106.796;2022-11-15T03:59:41;100867.41;;;32.00;58.12
74474;BME280;62922;-6.168;106.796;2022-11-15T04:02:07;100858.75;;;32.05;58.05
74474;BME280;62922;-6.168;106.796;2022-11-15T04:04:33;100853.59;;;32.07;58.26
74474;BME280;62922;-6.168;106.796;2022-11-15T04:06:59;100848.44;;;32.09;58.17
74474;BME280;62922;-6.168;106.796;2022-11-15T04:09:25;100854.22;;;32.13;57.70
74474;BME280;62922;-6.168;106.796;2022-11-15T04:11:51;100851.19;;;32.18;57.36
74474;BME280;62922;-6.168;106.796;2022-11-15T04:14:16;100849.69;;;32.20;57.13
74474;BME280;62922;-6.168;106.796;2022-11-15T04:16:42;100840.53;;;32.23;57.29
74474;BME280;62922;-6.168;106.796;2022-11-15T04:19:08;100840.53;;;32.23;57.14
74474;BME280;62922;-6.168;106.796;2022-11-15T04:21:57;100830.41;;;32.22;57.46
74474;BME280;62922;-6.168;106.796;2022-11-15T04:24:25;100827.94;;;32.21;57.20
74474;BME280;62922;-6.168;106.796;2022-11-15T04:26:51;100826.75;;;32.22;57.17
74474;BME280;62922;-6.168;106.796;2022-11-15T04:29:17;100816.31;;;32.22;56.87
74474;BME280;62922;-6.168;106.796;2022-11-15T04:31:45;100808.31;;;32.24;57.11
74474;BME280;62922;-6.168;106.796;2022-11-15T04:34:11;100812.63;;;32.22;57.06
74474;BME280;62922;-6.168;106.796;2022-11-15T04:36:37;100794.06;;;32.21;57.40
74474;BME280;62922;-6.168;106.796;2022-11-15T04:39:06;100801.34;;;32.22;57.12
74474;BME280;62922;-6.168;106.796;2022-11-15T04:41:32;100792.88;;;32.22;56.92
74474;BME280;62922;-6.168;106.796;2022-11-15T04:44:00;100799.00;;;32.24;57.03
74474;BME280;62922;-6.168;106.796;2022-11-15T04:46:26;100782.41;;;32.22;56.96
74474;BME280;62922;-6.168;106.796;2022-11-15T04:48:54;100781.94;;;32.20;57.18
74474;BME280;62922;-6.168;106.796;2022-11-15T04:51:20;100784.06;;;32.23;56.70
74474;BME280;62922;-6.168;106.796;2022-11-15T04:53:46;100774.91;;;32.26;57.11
74474;BME280;62922;-6.168;106.796;2022-11-15T04:56:12;100774.22;;;32.29;56.74
74474;BME280;62922;-6.168;106.796;2022-11-15T04:58:38;100767.88;;;32.32;56.58
74474;BME280;62922;-6.168;106.796;2022-11-15T05:03:32;100721.88;;;32.11;56.14
74474;BME280;62922;-6.168;106.796;2022-11-15T05:06:01;100754.38;;;32.38;56.39
74474;BME280;62922;-6.168;106.796;2022-11-15T05:08:27;100749.72;;;32.42;55.91
74474;BME280;62922;-6.168;106.796;2022-11-15T05:10:52;100743.72;;;32.43;55.90
74474;BME280;62922;-6.168;106.796;2022-11-15T05:13:18;100746.22;;;32.45;56.07
74474;BME280;62922;-6.168;106.796;2022-11-15T05:15:44;100738.25;;;32.47;56.20
74474;BME280;62922;-6.168;106.796;2022-11-15T05:18:10;100730.22;;;32.49;56.30
74474;BME280;62922;-6.168;106.796;2022-11-15T05:20:36;100728.22;;;32.49;56.06
74474;BME280;62922;-6.168;106.796;2022-11-15T05:23:02;100723.41;;;32.50;56.19
74474;BME280;62922;-6.168;106.796;2022-11-15T05:25:28;100713.28;;;32.49;56.26
74474;BME280;62922;-6.168;106.796;2022-11-15T05:27:56;100717.06;;;32.53;56.40
74474;BME280;62922;-6.168;106.796;2022-11-15T05:30:22;100707.22;;;32.59;55.66
74474;BME280;62922;-6.168;106.796;2022-11-15T05:32:48;100707.34;;;32.63;55.70
74474;BME280;62922;-6.168;106.796;2022-11-15T05:35:19;100697.66;;;32.64;55.14
74474;BME280;62922;-6.168;106.796;2022-11-15T05:37:47;100700.66;;;32.67;54.98
74474;BME280;62922;-6.168;106.796;2022-11-15T05:40:13;100704.75;;;32.70;54.91
74474;BME280;62922;-6.168;106.796;2022-11-15T05:42:42;100696.78;;;32.72;54.76
74474;BME280;62922;-6.168;106.796;2022-11-15T05:45:08;100697.25;;;32.74;55.35
74474;BME280;62922;-6.168;106.796;2022-11-15T05:47:35;100687.13;;;32.73;55.44
74474;BME280;62922;-6.168;106.796;2022-11-15T05:50:02;100675.47;;;32.74;54.95
74474;BME280;62922;-6.168;106.796;2022-11-15T05:52:29;100677.47;;;32.74;55.12
74474;BME280;62922;-6.168;106.796;2022-11-15T05:54:56;100657.22;;;32.72;54.86
74474;BME280;62922;-6.168;106.796;2022-11-15T05:57:23;100665.31;;;32.73;55.42
74474;BME280;62922;-6.168;106.796;2022-11-15T05:59:49;100661.81;;;32.76;55.15
74474;BME280;62922;-6.168;106.796;2022-11-15T06:02:15;100664.28;;;32.78;55.02
74474;BME280;62922;-6.168;106.796;2022-11-15T06:04:41;100667.59;;;32.80;54.22
74474;BME280;62922;-6.168;106.796;2022-11-15T06:07:07;100656.28;;;32.80;54.45
74474;BME280;62922;-6.168;106.796;2022-11-15T06:09:33;100664.41;;;32.81;54.28
74474;BME280;62922;-6.168;106.796;2022-11-15T06:11:59;100649.09;;;32.82;54.56
74474;BME280;62922;-6.168;106.796;2022-11-15T06:14:25;100653.59;;;32.83;54.62
74474;BME280;62922;-6.168;106.796;2022-11-15T06:16:51;100640.63;;;32.82;54.82
74474;BME280;62922;-6.168;106.796;2022-11-15T06:19:17;100643.81;;;32.81;54.20
74474;BME280;62922;-6.168;106.796;2022-11-15T06:21:43;100639.34;;;32.80;54.42
74474;BME280;62922;-6.168;106.796;2022-11-15T06:24:09;100625.69;;;32.82;54.42
74474;BME280;62922;-6.168;106.796;2022-11-15T06:26:35;100629.78;;;32.84;54.52
74474;BME280;62922;-6.168;106.796;2022-11-15T06:29:02;100628.28;;;32.87;54.31
74474;BME280;62922;-6.168;106.796;2022-11-15T06:31:30;100621.56;;;32.91;54.16
74474;BME280;62922;-6.168;106.796;2022-11-15T06:33:56;100613.56;;;32.93;53.29
74474;BME280;62922;-6.168;106.796;2022-11-15T06:36:22;100613.69;;;32.97;53.02
74474;BME280;62922;-6.168;106.796;2022-11-15T06:38:50;100613.03;;;33.00;53.18
74474;BME280;62922;-6.168;106.796;2022-11-15T06:41:16;100608.63;;;33.02;52.99
74474;BME280;62922;-6.168;106.796;2022-11-15T06:43:43;100615.59;;;33.05;52.51
74474;BME280;62922;-6.168;106.796;2022-11-15T06:46:08;100607.59;;;33.07;52.59
74474;BME280;62922;-6.168;106.796;2022-11-15T06:48:34;100594.75;;;33.09;52.64
74474;BME280;62922;-6.168;106.796;2022-11-15T06:51:02;100595.56;;;33.10;52.41
74474;BME280;62922;-6.168;106.796;2022-11-15T06:53:29;100594.41;;;33.11;53.12
74474;BME280;62922;-6.168;106.796;2022-11-15T06:56:00;100581.91;;;33.12;52.44
74474;BME280;62922;-6.168;106.796;2022-11-15T06:58:26;100591.59;;;33.11;52.66
74474;BME280;62922;-6.168;106.796;2022-11-15T07:00:52;100593.94;;;33.09;52.78
74474;BME280;62922;-6.168;106.796;2022-11-15T07:03:18;100597.25;;;33.11;52.61
74474;BME280;62922;-6.168;106.796;2022-11-15T07:08:12;100579.09;;;33.12;53.17
74474;BME280;62922;-6.168;106.796;2022-11-15T07:10:38;100580.28;;;33.11;53.03
74474;BME280;62922;-6.168;106.796;2022-11-15T07:13:04;100586.72;;;33.11;52.86
74474;BME280;62922;-6.168;106.796;2022-11-15T07:15:30;100570.13;;;33.10;53.11
74474;BME280;62922;-6.168;106.796;2022-11-15T07:17:56;100566.13;;;33.11;53.23
74474;BME280;62922;-6.168;106.796;2022-11-15T07:20:25;100559.66;;;33.10;53.17
74474;BME280;62922;-6.168;106.796;2022-11-15T07:22:51;100568.13;;;33.10;53.35
74474;BME280;62922;-6.168;106.796;2022-11-15T07:25:24;100575.41;;;33.11;53.50
74474;BME280;62922;-6.168;106.796;2022-11-15T07:30:18;100571.78;;;33.11;53.35
74474;BME280;62922;-6.168;106.796;2022-11-15T07:32:44;100569.44;;;33.13;53.52
74474;BME280;62922;-6.168;106.796;2022-11-15T07:35:11;100568.25;;;33.14;53.45
74474;BME280;62922;-6.168;106.796;2022-11-15T07:37:37;100559.28;;;33.12;53.56
74474;BME280;62922;-6.168;106.796;2022-11-15T07:40:03;100566.59;;;33.13;53.62
74474;BME280;62922;-6.168;106.796;2022-11-15T07:42:31;100559.28;;;33.12;53.93
74474;BME280;62922;-6.168;106.796;2022-11-15T07:45:00;100571.78;;;33.11;53.93
74474;BME280;62922;-6.168;106.796;2022-11-15T07:47:28;100562.94;;;33.12;54.13
74474;BME280;62922;-6.168;106.796;2022-11-15T07:49:54;100559.28;;;33.12;54.21
74474;BME280;62922;-6.168;106.796;2022-11-15T07:52:19;100556.47;;;33.12;53.73
74474;BME280;62922;-6.168;106.796;2022-11-15T07:54:45;100562.13;;;33.12;54.00
74474;BME280;62922;-6.168;106.796;2022-11-15T07:57:11;100564.94;;;33.12;54.23
74474;BME280;62922;-6.168;106.796;2022-11-15T07:59:40;100564.09;;;33.11;54.08
74474;BME280;62922;-6.168;106.796;2022-11-15T08:02:06;100563.78;;;33.13;53.73
74474;BME280;62922;-6.168;106.796;2022-11-15T08:04:33;100572.25;;;33.13;54.14
74474;BME280;62922;-6.168;106.796;2022-11-15T08:07:02;100556.47;;;33.12;53.67
74474;BME280;62922;-6.168;106.796;2022-11-15T08:09:28;100561.28;;;33.11;53.64
74474;BME280;62922;-6.168;106.796;2022-11-15T08:11:54;100571.44;;;33.12;53.49
74474;BME280;62922;-6.168;106.796;2022-11-15T08:14:20;100571.78;;;33.11;54.13
74474;BME280;62922;-6.168;106.796;2022-11-15T08:16:47;100568.97;;;33.11;53.90
74474;BME280;62922;-6.168;106.796;2022-11-15T08:19:13;100560.00;;;33.09;53.55
74474;BME280;62922;-6.168;106.796;2022-11-15T08:21:39;100559.19;;;33.08;54.03
74474;BME280;62922;-6.168;106.796;2022-11-15T08:24:04;100563.19;;;33.07;53.54
74474;BME280;62922;-6.168;106.796;2022-11-15T08:26:30;100549.75;;;33.04;53.50
74474;BME280;62922;-6.168;106.796;2022-11-15T08:28:56;100552.69;;;33.08;53.33
74474;BME280;62922;-6.168;106.796;2022-11-15T08:31:22;100561.63;;;33.10;53.71
74474;BME280;62922;-6.168;106.796;2022-11-15T08:33:48;100555.97;;;33.10;53.22
74474;BME280;62922;-6.168;106.796;2022-11-15T08:36:15;100560.00;;;33.09;53.08
74474;BME280;62922;-6.168;106.796;2022-11-15T08:38:41;100571.31;;;33.09;53.15
74474;BME280;62922;-6.168;106.796;2022-11-15T08:41:09;100562.84;;;33.09;53.74
74474;BME280;62922;-6.168;106.796;2022-11-15T08:43:36;100570.97;;;33.10;53.89
74474;BME280;62922;-6.168;106.796;2022-11-15T08:46:02;100563.63;;;33.09;53.31
74474;BME280;62922;-6.168;106.796;2022-11-15T08:48:29;100570.84;;;33.07;54.03
74474;BME280;62922;-6.168;106.796;2022-11-15T08:50:55;100562.34;;;33.07;54.31
74474;BME280;62922;-6.168;106.796;2022-11-15T08:53:23;100569.66;;;33.08;53.52
74474;BME280;62922;-6.168;106.796;2022-11-15T08:55:49;100567.19;;;33.06;54.46
74474;BME280;62922;-6.168;106.796;2022-11-15T08:58:15;100569.19;;;33.06;53.54
74474;BME280;62922;-6.168;106.796;2022-11-15T09:00:41;100569.19;;;33.06;53.84
74474;BME280;62922;-6.168;106.796;2022-11-15T09:03:07;100562.34;;;33.07;53.46
74474;BME280;62922;-6.168;106.796;2022-11-15T09:05:36;100567.19;;;33.06;54.25
74474;BME280;62922;-6.168;106.796;2022-11-15T09:08:03;100564.00;;;33.08;53.73
74474;BME280;62922;-6.168;106.796;2022-11-15T09:10:29;100559.88;;;33.05;54.33
74474;BME280;62922;-6.168;106.796;2022-11-15T09:12:56;100564.34;;;33.06;54.06
74474;BME280;62922;-6.168;106.796;2022-11-15T09:15:22;100561.06;;;33.04;54.14
74474;BME280;62922;-6.168;106.796;2022-11-15T09:17:48;100553.75;;;33.03;54.09
74474;BME280;62922;-6.168;106.796;2022-11-15T09:20:14;100555.66;;;32.99;54.70
74474;BME280;62922;-6.168;106.796;2022-11-15T09:22:40;100559.66;;;32.98;54.45
74474;BME280;62922;-6.168;106.796;2022-11-15T09:25:06;100554.81;;;32.99;54.45
74474;BME280;62922;-6.168;106.796;2022-11-15T09:27:35;100551.19;;;32.98;54.41
74474;BME280;62922;-6.168;106.796;2022-11-15T09:30:01;100555.66;;;32.99;54.24
74474;BME280;62922;-6.168;106.796;2022-11-15T09:32:28;100566.47;;;32.97;54.69
74474;BME280;62922;-6.168;106.796;2022-11-15T09:34:55;100567.31;;;32.98;54.49
74474;BME280;62922;-6.168;106.796;2022-11-15T09:37:21;100567.66;;;32.96;54.92
74474;BME280;62922;-6.168;106.796;2022-11-15T09:39:47;100567.66;;;32.96;54.47
74474;BME280;62922;-6.168;106.796;2022-11-15T09:44:42;100571.28;;;32.97;54.85
74474;BME280;62922;-6.168;106.796;2022-11-15T09:49:39;100582.28;;;32.98;54.75
74474;BME280;62922;-6.168;106.796;2022-11-15T09:52:06;100585.44;;;32.97;54.64
74474;BME280;62922;-6.168;106.796;2022-11-15T09:54:34;100593.13;;;32.96;54.88
74474;BME280;62922;-6.168;106.796;2022-11-15T09:57:04;100603.94;;;32.94;55.35
74474;BME280;62922;-6.168;106.796;2022-11-15T10:04:27;100608.50;;;32.87;54.92
74474;BME280;62922;-6.168;106.796;2022-11-15T10:09:26;100610.47;;;32.86;54.88
74474;BME280;62922;-6.168;106.796;2022-11-15T10:11:54;100621.78;;;32.86;55.41
74474;BME280;62922;-6.168;106.796;2022-11-15T10:14:21;100626.13;;;32.84;55.07
74474;BME280;62922;-6.168;106.796;2022-11-15T10:19:20;100631.66;;;32.80;55.42
74474;BME280;62922;-6.168;106.796;2022-11-15T10:24:18;100641.34;;;32.79;55.22
74474;BME280;62922;-6.168;106.796;2022-11-15T10:26:47;100647.47;;;32.81;54.82
74474;BME280;62922;-6.168;106.796;2022-11-15T10:31:42;100649.81;;;32.79;54.68
74474;BME280;62922;-6.168;106.796;2022-11-15T10:34:28;100654.84;;;32.74;54.62
74474;BME280;62922;-6.168;106.796;2022-11-15T10:36:54;100667.69;;;32.71;54.60
74474;BME280;62922;-6.168;106.796;2022-11-15T10:39:21;100667.91;;;32.66;54.83
74474;BME280;62922;-6.168;106.796;2022-11-15T10:41:47;100673.91;;;32.65;54.38
74474;BME280;62922;-6.168;106.796;2022-11-15T10:47:00;100674.94;;;32.60;54.83
74474;BME280;62922;-6.168;106.796;2022-11-15T10:49:30;100683.78;;;32.58;54.22
74474;BME280;62922;-6.168;106.796;2022-11-15T10:54:25;100687.97;;;32.52;54.34
74474;BME280;62922;-6.168;106.796;2022-11-15T10:56:54;100683.88;;;32.50;53.90
74474;BME280;62922;-6.168;106.796;2022-11-15T10:59:37;100685.38;;;32.47;54.63
74474;BME280;62922;-6.168;106.796;2022-11-15T11:04:50;100717.28;;;32.48;54.03
74474;BME280;62922;-6.168;106.796;2022-11-15T11:07:21;100720.47;;;32.46;54.10
74474;BME280;62922;-6.168;106.796;2022-11-15T11:09:48;100719.97;;;32.44;54.39
74474;BME280;62922;-6.168;106.796;2022-11-15T11:12:26;100726.78;;;32.43;54.55
74474;BME280;62922;-6.168;106.796;2022-11-15T11:14:53;100726.47;;;32.45;54.07
74474;BME280;62922;-6.168;106.796;2022-11-15T11:27:57;100762.03;;;32.37;54.44
74474;BME280;62922;-6.168;106.796;2022-11-15T11:30:30;100760.38;;;32.36;54.39
74474;BME280;62922;-6.168;106.796;2022-11-15T11:35:39;100765.06;;;32.32;54.53
74474;BME280;62922;-6.168;106.796;2022-11-15T11:50:51;100737.50;;;32.09;55.17
74474;BME280;62922;-6.168;106.796;2022-11-15T11:53:23;100777.25;;;32.24;55.06
74474;BME280;62922;-6.168;106.796;2022-11-15T11:55:55;100774.63;;;32.19;54.97
74474;BME280;62922;-6.168;106.796;2022-11-15T12:00:53;100782.63;;;32.17;54.49
74474;BME280;62922;-6.168;106.796;2022-11-15T12:05:48;100786.59;;;32.16;55.06
74474;BME280;62922;-6.168;106.796;2022-11-15T12:08:21;100780.94;;;32.16;54.74
74474;BME280;62922;-6.168;106.796;2022-11-15T12:10:50;100791.44;;;32.16;55.80
74474;BME280;62922;-6.168;106.796;2022-11-15T12:13:19;100784.13;;;32.15;55.13
74474;BME280;62922;-6.168;106.796;2022-11-15T12:18:17;100797.41;;;32.14;55.82
74474;BME280;62922;-6.168;106.796;2022-11-15T12:20:55;100807.41;;;32.12;55.96
74474;BME280;62922;-6.168;106.796;2022-11-15T12:23:37;100794.78;;;32.09;55.37
74474;BME280;62922;-6.168;106.796;2022-11-15T12:26:06;100794.28;;;32.07;55.26
74474;BME280;62922;-6.168;106.796;2022-11-15T12:31:05;100801.63;;;32.08;55.20
74474;BME280;62922;-6.168;106.796;2022-11-15T12:33:44;100803.13;;;32.06;55.12
74474;BME280;62922;-6.168;106.796;2022-11-15T12:36:12;100814.41;;;32.06;55.08
74474;BME280;62922;-6.168;106.796;2022-11-15T12:38:59;100819.22;;;32.05;55.30
74474;BME280;62922;-6.168;106.796;2022-11-15T12:41:27;100830.16;;;32.07;55.86
74474;BME280;62922;-6.168;106.796;2022-11-15T12:43:53;100830.50;;;32.05;55.80
74474;BME280;62922;-6.168;106.796;2022-11-15T12:49:01;100847.78;;;32.04;55.85
74474;BME280;62922;-6.168;106.796;2022-11-15T13:12:58;100865.94;;;31.94;56.36
74474;BME280;62922;-6.168;106.796;2022-11-15T13:15:35;100872.75;;;31.93;56.23
74474;BME280;62922;-6.168;106.796;2022-11-15T13:20:36;100870.63;;;31.90;56.33
74474;BME280;62922;-6.168;106.796;2022-11-15T13:27:56;100880.25;;;31.89;56.06
74474;BME280;62922;-6.168;106.796;2022-11-15T13:30:25;100876.28;;;31.90;56.68
74474;BME280;62922;-6.168;106.796;2022-11-15T13:32:51;100879.56;;;31.92;56.74
74474;BME280;62922;-6.168;106.796;2022-11-15T13:35:20;100881.91;;;31.90;56.67
74474;BME280;62922;-6.168;106.796;2022-11-15T13:37:46;100882.53;;;31.87;56.63
74474;BME280;62922;-6.168;106.796;2022-11-15T13:42:48;100890.00;;;31.83;56.60
74474;BME280;62922;-6.168;106.796;2022-11-15T13:45:15;100897.34;;;31.84;56.47
74474;BME280;62922;-6.168;106.796;2022-11-15T13:47:41;100903.81;;;31.85;57.08
74474;BME280;62922;-6.168;106.796;2022-11-15T13:50:11;100898.47;;;31.83;56.99
74474;BME280;62922;-6.168;106.796;2022-11-15T13:55:23;100900.34;;;31.79;56.34
74474;BME280;62922;-6.168;106.796;2022-11-15T13:57:58;100907.13;;;31.78;56.85
74474;BME280;62922;-6.168;106.796;2022-11-15T14:00:27;100909.13;;;31.78;56.43
74474;BME280;62922;-6.168;106.796;2022-11-15T14:02:54;100910.31;;;31.77;57.72
74474;BME280;62922;-6.168;106.796;2022-11-15T14:05:21;100904.31;;;31.78;57.32
74474;BME280;62922;-6.168;106.796;2022-11-15T14:07:59;100895.34;;;31.76;57.07
74474;BME280;62922;-6.168;106.796;2022-11-15T14:10:28;100894.53;;;31.76;57.21
74474;BME280;62922;-6.168;106.796;2022-11-15T14:12:55;100890.41;;;31.73;56.93
74474;BME280;62922;-6.168;106.796;2022-11-15T14:17:49;100887.56;;;31.73;56.77
74474;BME280;62922;-6.168;106.796;2022-11-15T14:25:35;100882.28;;;31.72;56.56
74474;BME280;62922;-6.168;106.796;2022-11-15T14:28:12;100888.56;;;31.69;57.00
74474;BME280;62922;-6.168;106.796;2022-11-15T14:30:40;100880.44;;;31.67;57.29
74474;BME280;62922;-6.168;106.796;2022-11-15T14:33:28;100878.81;;;31.66;57.00
74474;BME280;62922;-6.168;106.796;2022-11-15T14:35:53;100888.91;;;31.67;56.69
74474;BME280;62922;-6.168;106.796;2022-11-15T14:38:21;100889.75;;;31.68;56.99
74474;BME280;62922;-6.168;106.796;2022-11-15T14:40:47;100886.09;;;31.67;57.21
74474;BME280;62922;-6.168;106.796;2022-11-15T14:43:13;100889.59;;;31.64;56.97
74474;BME280;62922;-6.168;106.796;2022-11-15T14:45:39;100889.25;;;31.66;57.61
74474;BME280;62922;-6.168;106.796;2022-11-15T14:48:05;100888.91;;;31.67;57.79
74474;BME280;62922;-6.168;106.796;2022-11-15T14:50:32;100889.25;;;31.66;57.20
74474;BME280;62922;-6.168;106.796;2022-11-15T14:52:58;100895.59;;;31.63;57.17
74474;BME280;62922;-6.168;106.796;2022-11-15T14:55:25;100888.75;;;31.63;57.68
74474;BME280;62922;-6.168;106.796;2022-11-15T14:57:55;100887.94;;;31.63;57.13